createdAt,value
2017-09-11T00:02:18.024Z,11.80
2017-09-11T00:04:45.473Z,11.80
2017-09-11T00:07:12.918Z,11.80
2017-09-11T00:09:40.437Z,11.70
2017-09-11T00:12:07.867Z,11.80
2017-09-11T00:14:35.349Z,11.70
2017-09-11T00:17:02.801Z,11.70
2017-09-11T00:19:30.224Z,11.70
2017-09-11T00:21:57.682Z,11.70
2017-09-11T00:24:25.229Z,11.60
2017-09-11T00:26:52.676Z,11.60
2017-09-11T00:29:20.117Z,11.50
2017-09-11T00:31:48.372Z,11.60
2017-09-11T00:34:15.801Z,11.50
2017-09-11T00:36:43.239Z,11.50
2017-09-11T00:39:10.676Z,11.50
2017-09-11T00:41:38.116Z,11.50
2017-09-11T00:44:05.554Z,11.50
2017-09-11T00:46:32.998Z,11.40
2017-09-11T00:49:00.436Z,11.40
2017-09-11T00:51:27.912Z,11.40
2017-09-11T00:53:55.357Z,11.40
2017-09-11T00:56:22.804Z,11.40
2017-09-11T00:58:51.014Z,11.40
2017-09-11T01:01:18.506Z,11.40
2017-09-11T01:03:46.780Z,11.30
2017-09-11T01:06:15.006Z,11.30
2017-09-11T01:08:42.461Z,11.30
2017-09-11T01:11:09.908Z,11.30
2017-09-11T01:13:37.335Z,11.30
2017-09-11T01:16:04.866Z,11.20
2017-09-11T01:18:32.340Z,11.20
2017-09-11T01:20:59.880Z,11.10
2017-09-11T01:23:27.317Z,11.10
2017-09-11T01:25:54.761Z,11.10
2017-09-11T01:28:22.231Z,11.10
2017-09-11T01:30:50.464Z,11.00
2017-09-11T01:33:17.914Z,11.00
2017-09-11T01:35:45.460Z,11.00
2017-09-11T01:38:12.892Z,11.00
2017-09-11T01:40:40.337Z,11.00
2017-09-11T01:43:07.768Z,11.00
2017-09-11T01:45:35.217Z,11.10
2017-09-11T01:48:02.673Z,11.10
2017-09-11T01:50:30.888Z,11.10
2017-09-11T01:52:58.327Z,11.10
2017-09-11T01:55:25.764Z,11.10
2017-09-11T01:57:53.209Z,11.10
2017-09-11T02:00:20.696Z,11.10
2017-09-11T02:02:48.128Z,11.00
2017-09-11T02:05:15.578Z,11.00
2017-09-11T02:07:43.032Z,11.00
2017-09-11T02:10:10.489Z,11.00
2017-09-11T02:12:38.696Z,11.00
2017-09-11T02:15:06.164Z,10.90
2017-09-11T02:17:33.607Z,11.00
2017-09-11T02:20:01.048Z,11.00
2017-09-11T02:22:28.501Z,11.00
2017-09-11T02:24:55.957Z,11.00
2017-09-11T02:27:24.173Z,10.90
2017-09-11T02:29:51.612Z,10.90
2017-09-11T02:32:19.053Z,10.90
2017-09-11T02:34:46.493Z,10.90
2017-09-11T02:37:13.939Z,11.00
2017-09-11T02:39:41.385Z,11.00
2017-09-11T02:42:08.841Z,11.00
2017-09-11T02:44:36.299Z,11.00
2017-09-11T02:47:03.754Z,11.00
2017-09-11T02:49:31.260Z,11.10
2017-09-11T02:51:58.707Z,11.10
2017-09-11T02:54:26.155Z,11.00
2017-09-11T02:56:53.621Z,11.10
2017-09-11T02:59:21.060Z,10.90
2017-09-11T03:01:48.604Z,10.90
2017-09-11T03:04:16.054Z,10.90
2017-09-11T03:06:44.269Z,10.80
2017-09-11T03:09:11.709Z,10.70
2017-09-11T03:11:39.196Z,10.80
2017-09-11T03:14:06.633Z,10.80
2017-09-11T03:16:34.089Z,10.90
2017-09-11T03:19:02.301Z,10.90
2017-09-11T03:21:29.754Z,10.90
2017-09-11T03:23:57.196Z,10.90
2017-09-11T03:26:24.632Z,10.90
2017-09-11T03:28:52.068Z,11.00
2017-09-11T03:31:19.515Z,11.00
2017-09-11T03:33:46.944Z,11.00
2017-09-11T03:36:14.444Z,11.00
2017-09-11T03:38:42.701Z,10.90
2017-09-11T03:41:10.159Z,10.90
2017-09-11T03:43:38.485Z,10.90
2017-09-11T03:46:05.938Z,10.90
2017-09-11T03:48:33.383Z,10.80
2017-09-11T03:51:00.932Z,10.80
2017-09-11T03:53:28.373Z,10.70
2017-09-11T03:55:55.833Z,10.60
2017-09-11T03:58:24.081Z,10.60
2017-09-11T04:00:51.620Z,10.70
2017-09-11T04:03:19.062Z,10.70
2017-09-11T04:05:46.513Z,10.70
2017-09-11T04:08:13.951Z,10.70
2017-09-11T04:10:41.409Z,10.60
2017-09-11T04:13:08.860Z,10.60
2017-09-11T04:15:37.114Z,10.50
2017-09-11T04:18:05.330Z,10.40
2017-09-11T04:20:32.768Z,10.40
2017-09-11T04:23:00.225Z,10.50
2017-09-11T04:25:27.669Z,10.50
2017-09-11T04:27:55.141Z,10.60
2017-09-11T04:30:23.345Z,10.60
2017-09-11T04:32:50.796Z,10.60
2017-09-11T04:35:18.278Z,10.60
2017-09-11T04:37:45.758Z,10.70
2017-09-11T04:40:13.193Z,10.70
2017-09-11T04:42:40.631Z,10.70
2017-09-11T04:45:08.073Z,10.70
2017-09-11T04:47:35.524Z,10.70
2017-09-11T04:50:02.977Z,10.60
2017-09-11T04:52:30.525Z,10.60
2017-09-11T04:54:57.985Z,10.50
2017-09-11T04:57:25.438Z,10.40
2017-09-11T04:59:52.909Z,10.50
2017-09-11T05:02:20.394Z,10.40
2017-09-11T05:04:47.853Z,10.40
2017-09-11T05:07:15.297Z,10.50
2017-09-11T05:09:42.771Z,10.60
2017-09-11T05:12:10.320Z,10.60
2017-09-11T05:14:37.756Z,10.60
2017-09-11T05:17:05.207Z,10.80
2017-09-11T05:19:32.653Z,10.90
2017-09-11T05:22:00.109Z,11.00
2017-09-11T05:24:28.308Z,11.10
2017-09-11T05:26:55.753Z,11.10
2017-09-11T05:29:23.289Z,11.10
2017-09-11T05:31:50.732Z,11.10
2017-09-11T05:34:18.171Z,11.30
2017-09-11T05:36:45.622Z,11.40
2017-09-11T05:39:13.060Z,11.50
2017-09-11T05:41:40.512Z,11.60
2017-09-11T05:44:07.992Z,11.70
2017-09-11T05:46:35.443Z,11.80
2017-09-11T05:49:02.881Z,11.90
2017-09-11T05:51:30.346Z,12.00
2017-09-11T05:53:57.776Z,12.10
2017-09-11T05:56:26.026Z,12.20
2017-09-11T05:58:53.449Z,12.20
2017-09-11T06:01:20.892Z,12.20
2017-09-11T06:03:48.321Z,12.20
2017-09-11T06:06:15.784Z,12.20
2017-09-11T06:08:43.224Z,12.30
2017-09-11T06:11:10.677Z,12.30
2017-09-11T06:13:38.113Z,12.40
2017-09-11T06:16:05.601Z,12.50
2017-09-11T06:18:33.029Z,12.50
2017-09-11T06:21:01.240Z,12.70
2017-09-11T06:23:28.744Z,12.70
2017-09-11T06:25:56.985Z,12.70
2017-09-11T06:28:24.440Z,12.70
2017-09-11T06:30:52.684Z,12.60
2017-09-11T06:33:20.144Z,12.60
2017-09-11T06:35:48.349Z,12.60
2017-09-11T06:38:15.830Z,12.60
2017-09-11T06:40:43.268Z,12.70
2017-09-11T06:43:10.717Z,12.80
2017-09-11T06:45:38.148Z,12.90
2017-09-11T06:48:05.588Z,13.00
2017-09-11T06:50:33.036Z,13.10
2017-09-11T06:53:00.476Z,13.20
2017-09-11T06:55:27.904Z,13.20
2017-09-11T06:57:55.357Z,13.30
2017-09-11T07:00:22.792Z,13.30
2017-09-11T07:02:50.254Z,13.40
2017-09-11T07:05:17.737Z,13.50
2017-09-11T07:07:45.258Z,13.60
2017-09-11T07:10:13.514Z,13.80
2017-09-11T07:12:52.785Z,13.80
2017-09-11T07:15:20.225Z,13.90
2017-09-11T07:17:47.664Z,13.90
2017-09-11T07:20:15.114Z,14.10
2017-09-11T07:22:42.557Z,14.20
2017-09-11T07:25:10.008Z,14.20
2017-09-11T07:27:37.460Z,14.20
2017-09-11T07:30:04.925Z,14.30
2017-09-11T07:32:32.465Z,14.40
2017-09-11T07:34:59.892Z,14.70
2017-09-11T07:37:27.338Z,15.00
2017-09-11T07:39:54.776Z,15.40
2017-09-11T07:42:22.226Z,15.70
2017-09-11T07:44:49.678Z,16.10
2017-09-11T07:47:17.109Z,16.50
2017-09-11T07:49:44.555Z,16.60
2017-09-11T07:52:12.025Z,16.50
2017-09-11T07:54:40.225Z,16.50
2017-09-11T07:57:07.804Z,16.50
2017-09-11T07:59:35.242Z,16.60
2017-09-11T08:02:02.696Z,16.80
2017-09-11T08:04:30.231Z,17.00
2017-09-11T08:06:57.689Z,17.20
2017-09-11T08:09:25.128Z,17.80
2017-09-11T08:11:52.565Z,18.40
2017-09-11T08:14:20.834Z,18.80
2017-09-11T08:16:48.269Z,18.80
2017-09-11T08:19:16.544Z,18.80
2017-09-11T08:21:44.762Z,19.00
2017-09-11T08:24:12.201Z,19.00
2017-09-11T08:26:39.650Z,18.90
2017-09-11T08:29:07.099Z,19.10
2017-09-11T08:31:34.535Z,19.60
2017-09-11T08:34:01.958Z,19.80
2017-09-11T08:36:29.552Z,19.70
2017-09-11T08:38:56.977Z,20.00
2017-09-11T08:41:24.441Z,20.30
2017-09-11T08:43:51.884Z,20.20
2017-09-11T08:46:19.412Z,20.20
2017-09-11T08:48:46.850Z,20.30
2017-09-11T08:51:14.293Z,20.50
2017-09-11T08:53:42.234Z,20.70
2017-09-11T08:56:09.667Z,21.00
2017-09-11T08:58:37.329Z,21.10
2017-09-11T09:01:04.769Z,21.20
2017-09-11T09:03:32.201Z,21.50
2017-09-11T09:05:59.712Z,21.50
2017-09-11T09:08:27.923Z,21.60
2017-09-11T09:10:56.013Z,21.60
2017-09-11T09:13:24.233Z,21.70
2017-09-11T09:15:51.648Z,21.70
2017-09-11T09:18:19.101Z,21.90
2017-09-11T09:20:46.524Z,21.90
2017-09-11T09:23:13.965Z,22.00
2017-09-11T09:25:41.387Z,21.80
2017-09-11T09:28:08.828Z,21.90
2017-09-11T09:30:37.042Z,22.40
2017-09-11T09:33:04.472Z,22.40
2017-09-11T09:35:31.904Z,22.30
2017-09-11T09:37:59.345Z,22.40
2017-09-11T09:40:26.773Z,22.30
2017-09-11T09:42:54.224Z,22.20
2017-09-11T09:45:21.674Z,22.20
2017-09-11T09:47:49.147Z,22.10
2017-09-11T09:50:16.585Z,22.00
2017-09-11T09:52:44.024Z,21.90
2017-09-11T09:55:11.463Z,21.70
2017-09-11T09:57:38.951Z,21.20
2017-09-11T10:00:06.380Z,20.80
2017-09-11T10:02:33.822Z,20.60
2017-09-11T10:05:01.342Z,20.40
2017-09-11T10:07:28.819Z,20.30
2017-09-11T10:09:56.619Z,20.20
2017-09-11T10:12:39.053Z,20.00
2017-09-11T10:15:06.485Z,20.00
2017-09-11T10:17:34.024Z,20.10
2017-09-11T10:20:01.464Z,20.10
2017-09-11T10:22:28.890Z,20.20
2017-09-11T10:24:56.330Z,20.30
2017-09-11T10:27:23.808Z,20.40
2017-09-11T10:29:51.244Z,20.40
2017-09-11T10:32:18.693Z,20.30
2017-09-11T10:34:46.130Z,20.20
2017-09-11T10:37:13.573Z,20.20
2017-09-11T10:39:41.028Z,20.20
2017-09-11T10:42:08.471Z,20.40
2017-09-11T10:44:35.900Z,20.50
2017-09-11T10:47:03.333Z,20.50
2017-09-11T10:49:30.764Z,20.20
2017-09-11T10:51:58.337Z,20.00
2017-09-11T10:54:25.769Z,19.90
2017-09-11T10:56:54.053Z,19.70
2017-09-11T10:59:21.501Z,19.50
2017-09-11T11:01:48.940Z,19.70
2017-09-11T11:04:16.472Z,19.80
2017-09-11T11:06:44.025Z,20.00
2017-09-11T11:09:11.512Z,20.20
2017-09-11T11:11:38.940Z,20.50
2017-09-11T11:14:06.456Z,20.60
2017-09-11T11:16:33.900Z,20.80
2017-09-11T11:19:01.328Z,20.80
2017-09-11T11:21:28.768Z,20.80
2017-09-11T11:23:56.236Z,20.80
2017-09-11T11:26:23.668Z,20.70
2017-09-11T11:28:51.108Z,20.50
2017-09-11T11:31:18.545Z,20.60
2017-09-11T11:33:45.999Z,20.80
2017-09-11T11:36:13.456Z,20.90
2017-09-11T11:38:40.938Z,20.90
2017-09-11T11:41:41.854Z,20.90
2017-09-11T11:44:09.292Z,20.70
2017-09-11T11:46:36.729Z,20.80
2017-09-11T11:49:04.235Z,20.90
2017-09-11T11:51:31.724Z,20.80
2017-09-11T11:53:59.168Z,20.80
2017-09-11T11:56:26.608Z,20.60
2017-09-11T11:58:54.974Z,20.30
2017-09-11T12:01:22.482Z,20.30
2017-09-11T12:03:50.015Z,20.30
2017-09-11T12:06:17.446Z,20.30
2017-09-11T12:08:44.907Z,20.40
2017-09-11T12:11:12.412Z,20.60
2017-09-11T12:13:39.944Z,20.70
2017-09-11T12:16:07.425Z,20.80
2017-09-11T12:18:34.876Z,20.80
2017-09-11T12:21:02.303Z,20.90
2017-09-11T12:23:29.774Z,21.00
2017-09-11T12:25:57.236Z,21.00
2017-09-11T12:28:24.852Z,21.00
2017-09-11T12:30:52.306Z,21.00
2017-09-11T12:33:20.567Z,20.90
2017-09-11T12:35:48.006Z,20.90
2017-09-11T12:38:15.434Z,20.90
2017-09-11T12:40:42.976Z,20.90
2017-09-11T12:43:10.424Z,20.80
2017-09-11T12:45:37.865Z,20.90
2017-09-11T12:48:05.295Z,20.80
2017-09-11T12:50:32.736Z,20.80
2017-09-11T12:53:00.175Z,20.70
2017-09-11T12:55:27.616Z,20.60
2017-09-11T12:57:55.069Z,20.40
2017-09-11T13:00:22.902Z,20.30
2017-09-11T13:02:50.364Z,20.30
2017-09-11T13:05:17.792Z,20.30
2017-09-11T13:07:45.240Z,20.20
2017-09-11T13:10:12.920Z,20.10
2017-09-11T13:12:41.136Z,20.10
2017-09-11T13:15:08.737Z,20.10
2017-09-11T13:17:36.212Z,20.20
2017-09-11T13:20:03.677Z,20.20
2017-09-11T13:22:31.135Z,20.20
2017-09-11T13:24:58.639Z,20.20
2017-09-11T13:27:26.065Z,20.20
2017-09-11T13:29:53.537Z,20.20
2017-09-11T13:32:21.017Z,20.30
2017-09-11T13:34:49.270Z,20.30
2017-09-11T13:37:16.732Z,20.30
2017-09-11T13:39:44.953Z,20.20
2017-09-11T13:42:12.379Z,20.10
2017-09-11T13:44:39.824Z,20.20
2017-09-11T13:47:07.271Z,20.20
2017-09-11T13:49:34.723Z,20.20
2017-09-11T13:52:02.145Z,20.10
2017-09-11T13:54:29.588Z,20.10
2017-09-11T13:56:57.030Z,20.10
2017-09-11T13:59:24.489Z,20.10
2017-09-11T14:01:51.965Z,20.20
2017-09-11T14:04:19.407Z,20.30
2017-09-11T14:06:46.837Z,20.30
2017-09-11T14:09:14.279Z,20.40
2017-09-11T14:11:41.721Z,20.40
2017-09-11T14:14:09.157Z,20.30
2017-09-11T14:16:36.608Z,20.20
2017-09-11T14:19:04.040Z,20.30
2017-09-11T14:21:31.512Z,20.30
2017-09-11T14:23:58.945Z,20.40
2017-09-11T14:26:26.419Z,20.50
2017-09-11T14:28:54.604Z,20.30
2017-09-11T14:31:22.084Z,20.30
2017-09-11T14:33:49.524Z,20.30
2017-09-11T14:36:16.969Z,20.20
2017-09-11T14:38:44.433Z,20.20
2017-09-11T14:41:12.695Z,20.40
2017-09-11T14:43:40.129Z,20.30
2017-09-11T14:46:07.780Z,20.40
2017-09-11T14:48:35.229Z,20.20
2017-09-11T14:51:03.427Z,20.10
2017-09-11T14:53:30.864Z,20.00
2017-09-11T14:55:58.314Z,20.00
2017-09-11T14:58:25.753Z,20.10
2017-09-11T15:00:53.176Z,20.00
2017-09-11T15:03:21.504Z,20.00
2017-09-11T15:05:48.936Z,20.00
2017-09-11T15:08:16.385Z,20.00
2017-09-11T15:10:43.820Z,19.90
2017-09-11T15:13:11.349Z,20.00
2017-09-11T15:15:38.769Z,20.00
2017-09-11T15:18:06.208Z,20.00
2017-09-11T15:20:33.654Z,20.00
2017-09-11T15:23:01.080Z,20.00
2017-09-11T15:25:28.584Z,19.90
2017-09-11T15:27:56.020Z,19.80
2017-09-11T15:30:23.473Z,19.90
2017-09-11T15:32:50.909Z,19.90
2017-09-11T15:35:18.350Z,19.90
2017-09-11T15:37:45.824Z,19.80
2017-09-11T15:40:14.034Z,19.80
2017-09-11T15:42:41.481Z,19.70
2017-09-11T15:45:08.962Z,19.70
2017-09-11T15:47:36.396Z,19.70
2017-09-11T15:50:03.840Z,19.50
2017-09-11T15:52:31.288Z,19.50
2017-09-11T15:54:58.732Z,19.40
2017-09-11T15:57:26.183Z,19.40
2017-09-11T15:59:54.385Z,19.30
2017-09-11T16:02:21.821Z,19.30
2017-09-11T16:04:49.266Z,19.40
2017-09-11T16:07:16.712Z,19.40
2017-09-11T16:09:44.205Z,19.50
2017-09-11T16:12:11.770Z,19.50
2017-09-11T16:14:40.004Z,19.30
2017-09-11T16:17:07.459Z,19.20
2017-09-11T16:19:35.671Z,19.00
2017-09-11T16:22:03.135Z,19.00
2017-09-11T16:24:31.378Z,19.00
2017-09-11T16:26:58.866Z,19.00
2017-09-11T16:29:26.337Z,19.00
2017-09-11T16:31:53.810Z,19.00
2017-09-11T16:34:21.228Z,18.90
2017-09-11T16:36:48.804Z,18.70
2017-09-11T16:39:16.333Z,18.60
2017-09-11T16:41:43.794Z,18.50
2017-09-11T16:44:11.256Z,18.40
2017-09-11T16:46:38.698Z,18.40
2017-09-11T16:49:06.212Z,18.40
2017-09-11T16:51:33.680Z,18.40
2017-09-11T16:54:01.221Z,18.30
2017-09-11T16:56:28.665Z,18.30
2017-09-11T16:58:56.127Z,18.20
2017-09-11T17:01:25.298Z,18.10
2017-09-11T17:03:52.745Z,18.10
2017-09-11T17:06:21.598Z,17.90
2017-09-11T17:08:49.041Z,17.90
2017-09-11T17:11:16.576Z,17.80
2017-09-11T17:13:44.021Z,17.70
2017-09-11T17:16:11.481Z,17.70
2017-09-11T17:18:38.938Z,17.50
2017-09-11T17:21:07.170Z,17.40
2017-09-11T17:23:34.593Z,17.40
2017-09-11T17:26:02.056Z,17.40
2017-09-11T17:28:29.492Z,17.40
2017-09-11T17:30:56.943Z,17.40
2017-09-11T17:33:24.385Z,17.40
2017-09-11T17:35:51.824Z,17.30
2017-09-11T17:38:19.305Z,17.30
2017-09-11T17:40:47.521Z,17.30
2017-09-11T17:43:15.005Z,17.20
2017-09-11T17:45:43.212Z,17.10
2017-09-11T17:48:10.660Z,17.10
2017-09-11T17:50:38.125Z,17.10
2017-09-11T17:53:05.576Z,17.10
2017-09-11T17:55:33.077Z,17.00
2017-09-11T17:58:00.512Z,16.90
2017-09-11T18:00:27.952Z,16.80
2017-09-11T18:02:55.502Z,16.70
2017-09-11T18:05:23.688Z,16.60
2017-09-11T18:07:51.131Z,16.60
2017-09-11T18:10:18.588Z,16.50
2017-09-11T18:12:46.028Z,16.50
2017-09-11T18:15:13.485Z,16.40
2017-09-11T18:17:41.005Z,16.40
2017-09-11T18:20:08.476Z,16.30
2017-09-11T18:22:35.921Z,16.30
2017-09-11T18:25:04.132Z,16.20
2017-09-11T18:27:31.584Z,16.20
2017-09-11T18:29:59.042Z,16.20
2017-09-11T18:32:26.495Z,16.10
2017-09-11T18:34:53.952Z,16.00
2017-09-11T18:37:21.414Z,16.00
2017-09-11T18:39:49.664Z,16.00
2017-09-11T18:42:17.376Z,16.00
2017-09-11T18:44:44.862Z,15.90
2017-09-11T18:47:13.095Z,15.70
2017-09-11T18:49:40.543Z,15.70
2017-09-11T18:52:08.025Z,15.60
2017-09-11T18:54:36.338Z,15.40
2017-09-11T18:57:03.766Z,15.30
2017-09-11T18:59:31.213Z,15.30
2017-09-11T19:01:58.672Z,15.20
2017-09-11T19:04:26.128Z,15.10
2017-09-11T19:06:53.650Z,14.90
2017-09-11T19:09:21.129Z,14.80
2017-09-11T19:11:49.345Z,14.80
2017-09-11T19:14:16.820Z,14.80
2017-09-11T19:16:44.439Z,14.80
2017-09-11T19:19:11.896Z,14.80
2017-09-11T19:21:39.370Z,14.80
2017-09-11T19:24:07.629Z,14.80
2017-09-11T19:26:35.131Z,14.80
2017-09-11T19:29:03.332Z,14.80
2017-09-11T19:31:30.790Z,14.80
2017-09-11T19:33:58.261Z,14.80
2017-09-11T19:36:25.757Z,14.70
2017-09-11T19:38:53.195Z,14.70
2017-09-11T19:41:20.672Z,14.70
2017-09-11T19:43:48.118Z,14.60
2017-09-11T19:46:15.660Z,14.60
2017-09-11T19:48:43.868Z,14.60
2017-09-11T19:51:11.305Z,14.60
2017-09-11T19:53:38.813Z,14.60
2017-09-11T19:56:06.370Z,14.60
2017-09-11T19:58:33.804Z,14.60
2017-09-11T20:01:02.053Z,14.60
2017-09-11T20:03:29.493Z,14.60
2017-09-11T20:05:56.940Z,14.50
2017-09-11T20:08:24.397Z,14.50
2017-09-11T20:10:52.597Z,14.50
2017-09-11T20:13:20.057Z,14.50
2017-09-11T20:15:47.497Z,14.50
2017-09-11T20:18:15.005Z,14.40
2017-09-11T20:20:42.440Z,14.40
2017-09-11T20:23:10.690Z,14.40
2017-09-11T20:25:38.949Z,14.40
2017-09-11T20:28:06.387Z,14.40
2017-09-11T20:30:33.852Z,14.40
2017-09-11T20:33:02.053Z,14.30
2017-09-11T20:35:29.493Z,14.30
2017-09-11T20:37:57.038Z,14.30
2017-09-11T20:40:24.487Z,14.20
2017-09-11T20:42:51.949Z,14.20
2017-09-11T20:45:19.402Z,14.20
2017-09-11T20:47:46.865Z,14.20
2017-09-11T20:50:15.066Z,14.20
2017-09-11T20:52:42.618Z,14.20
2017-09-11T20:55:10.101Z,14.20
2017-09-11T20:57:37.642Z,14.20
2017-09-11T21:00:05.217Z,14.20
2017-09-11T21:02:32.725Z,14.20
2017-09-11T21:05:00.164Z,14.10
2017-09-11T21:07:27.719Z,14.10
2017-09-11T21:09:55.161Z,14.10
2017-09-11T21:12:22.711Z,14.10
2017-09-11T21:14:50.140Z,14.10
2017-09-11T21:17:17.633Z,14.00
2017-09-11T21:19:45.161Z,14.00
2017-09-11T21:22:13.403Z,13.90
2017-09-11T21:24:40.837Z,13.90
2017-09-11T21:27:08.295Z,13.90
2017-09-11T21:29:36.510Z,13.90
2017-09-11T21:32:04.051Z,13.90
2017-09-11T21:34:31.473Z,13.90
2017-09-11T21:36:58.916Z,13.90
2017-09-11T21:39:26.395Z,13.80
2017-09-11T21:41:53.857Z,13.80
2017-09-11T21:44:21.292Z,13.80
2017-09-11T21:46:48.736Z,13.70
2017-09-11T21:49:16.198Z,13.70
2017-09-11T21:51:43.624Z,13.70
2017-09-11T21:54:11.068Z,13.70
2017-09-11T21:56:38.516Z,13.70
2017-09-11T21:59:05.973Z,13.70
2017-09-11T22:01:34.185Z,13.70
2017-09-11T22:04:01.728Z,13.60
2017-09-11T22:06:29.173Z,13.60
2017-09-11T22:08:56.636Z,13.50
2017-09-11T22:11:25.690Z,13.40
2017-09-11T22:13:53.169Z,13.40
2017-09-11T22:16:20.626Z,13.40
2017-09-11T22:18:48.836Z,13.40
2017-09-11T22:21:16.278Z,13.30
2017-09-11T22:23:43.724Z,13.30
2017-09-11T22:26:11.172Z,13.30
2017-09-11T22:28:38.627Z,13.30
2017-09-11T22:31:06.049Z,13.30
2017-09-11T22:33:33.597Z,13.20
2017-09-11T22:36:01.066Z,13.20
2017-09-11T22:38:28.626Z,13.30
2017-09-11T22:40:56.847Z,13.30
2017-09-11T22:43:24.324Z,13.30
2017-09-11T22:45:51.763Z,13.30
2017-09-11T22:48:20.091Z,13.10
2017-09-11T22:50:47.519Z,13.10
2017-09-11T22:53:15.005Z,13.00
2017-09-11T22:55:42.625Z,13.00
2017-09-11T22:58:10.084Z,13.00
2017-09-11T23:00:37.544Z,13.00
2017-09-11T23:03:05.012Z,13.00
2017-09-11T23:05:32.526Z,12.90
2017-09-11T23:07:59.984Z,13.00
2017-09-11T23:10:28.181Z,12.90
2017-09-11T23:12:55.638Z,12.90
2017-09-11T23:15:23.228Z,12.90
2017-09-11T23:17:50.684Z,12.90
2017-09-11T23:20:19.020Z,12.90
2017-09-11T23:22:46.540Z,12.90
2017-09-11T23:25:13.963Z,12.90
2017-09-11T23:27:41.400Z,12.90
2017-09-11T23:30:08.870Z,12.90
2017-09-11T23:32:36.312Z,12.90
2017-09-11T23:35:04.517Z,13.00
2017-09-11T23:37:32.109Z,13.00
2017-09-11T23:39:59.546Z,13.00
2017-09-11T23:42:27.101Z,12.90
2017-09-11T23:44:54.606Z,12.90
2017-09-11T23:47:22.065Z,13.00
2017-09-11T23:49:49.496Z,12.90
2017-09-11T23:52:16.941Z,13.00
2017-09-11T23:54:44.384Z,13.00
2017-09-11T23:57:11.924Z,12.90
2017-09-11T23:59:39.396Z,12.80
